createdAt,value
2022-12-26T00:01:45.913Z,10.23
2022-12-26T00:04:53.155Z,10.24
2022-12-26T00:07:57.748Z,10.24
2022-12-26T00:11:00.278Z,10.21
2022-12-26T00:14:03.824Z,10.22
2022-12-26T00:17:06.424Z,10.23
2022-12-26T00:20:10.019Z,10.22
2022-12-26T00:23:13.925Z,10.22
2022-12-26T00:26:17.651Z,10.22
2022-12-26T00:29:20.224Z,10.21
2022-12-26T00:32:22.763Z,10.19
2022-12-26T00:35:25.295Z,10.17
2022-12-26T00:38:29.223Z,10.17
2022-12-26T00:41:32.016Z,10.16
2022-12-26T00:44:34.707Z,10.14
2022-12-26T00:47:37.343Z,10.12
2022-12-26T00:50:39.966Z,10.11
2022-12-26T00:53:43.908Z,10.11
2022-12-26T00:56:46.587Z,10.10
2022-12-26T00:59:49.098Z,10.09
2022-12-26T01:02:51.796Z,10.08
2022-12-26T01:05:54.416Z,10.08
2022-12-26T01:08:59.462Z,10.07
2022-12-26T01:12:01.993Z,10.07
2022-12-26T01:15:05.052Z,10.06
2022-12-26T01:18:07.649Z,10.04
2022-12-26T01:21:11.398Z,10.05
2022-12-26T01:24:15.347Z,10.07
2022-12-26T01:27:17.880Z,10.08
2022-12-26T01:30:20.655Z,10.06
2022-12-26T01:33:23.264Z,10.05
2022-12-26T01:36:25.832Z,10.05
2022-12-26T01:39:29.726Z,10.02
2022-12-26T01:42:37.376Z,10.01
2022-12-26T01:45:40.100Z,9.97
2022-12-26T01:48:43.141Z,10.00
2022-12-26T01:51:47.295Z,9.99
2022-12-26T01:54:51.580Z,10.00
2022-12-26T01:57:56.169Z,9.98
2022-12-26T02:00:58.820Z,9.98
2022-12-26T02:04:30.503Z,9.99
2022-12-26T02:07:33.241Z,9.97
2022-12-26T02:10:40.006Z,9.89
2022-12-26T02:13:42.602Z,9.97
2022-12-26T02:16:45.287Z,9.95
2022-12-26T02:19:50.676Z,9.91
2022-12-26T02:23:31.610Z,9.98
2022-12-26T02:27:04.697Z,9.94
2022-12-26T02:30:09.520Z,9.97
2022-12-26T02:33:33.380Z,9.94
2022-12-26T02:36:44.235Z,10.01
2022-12-26T02:39:55.805Z,10.00
2022-12-26T02:43:00.139Z,10.03
2022-12-26T02:46:38.032Z,10.02
2022-12-26T02:50:07.633Z,9.97
2022-12-26T02:53:41.917Z,9.92
2022-12-26T02:57:04.409Z,9.86
2022-12-26T03:00:26.796Z,9.80
2022-12-26T03:03:47.904Z,9.74
2022-12-26T03:07:11.909Z,9.69
2022-12-26T03:10:35.141Z,9.66
2022-12-26T03:13:37.738Z,9.66
2022-12-26T03:16:57.912Z,9.65
2022-12-26T03:20:02.518Z,9.62
2022-12-26T03:23:08.170Z,9.61
2022-12-26T03:26:31.024Z,9.57
2022-12-26T03:29:53.591Z,9.55
2022-12-26T03:32:56.565Z,9.54
2022-12-26T03:35:59.183Z,9.53
2022-12-26T03:39:08.417Z,9.51
2022-12-26T03:42:29.279Z,9.51
2022-12-26T03:46:01.475Z,9.49
2022-12-26T03:49:24.895Z,9.39
2022-12-26T03:52:46.803Z,9.47
2022-12-26T03:56:13.905Z,9.46
2022-12-26T03:59:36.030Z,9.42
2022-12-26T04:02:56.010Z,9.42
2022-12-26T04:06:16.744Z,9.42
2022-12-26T04:09:38.540Z,9.44
2022-12-26T04:13:00.152Z,9.43
2022-12-26T04:16:33.685Z,9.45
2022-12-26T04:19:58.108Z,9.45
2022-12-26T04:23:20.625Z,9.44
2022-12-26T04:26:45.019Z,9.47
2022-12-26T04:30:06.694Z,9.46
2022-12-26T04:33:29.615Z,9.44
2022-12-26T04:36:51.113Z,9.47
2022-12-26T04:40:11.871Z,9.45
2022-12-26T04:43:50.052Z,9.42
2022-12-26T04:46:55.193Z,9.41
2022-12-26T04:50:12.108Z,9.40
2022-12-26T04:53:15.644Z,9.42
2022-12-26T04:56:18.697Z,9.39
2022-12-26T04:59:21.516Z,9.41
2022-12-26T05:02:43.271Z,9.40
2022-12-26T05:06:03.949Z,9.41
2022-12-26T05:09:24.341Z,9.39
2022-12-26T05:12:26.926Z,9.42
2022-12-26T05:15:49.507Z,9.41
2022-12-26T05:19:11.461Z,9.42
2022-12-26T05:22:31.552Z,9.46
2022-12-26T05:25:52.922Z,9.50
2022-12-26T05:28:57.297Z,9.51
2022-12-26T05:32:00.915Z,9.50
2022-12-26T05:35:04.237Z,9.48
2022-12-26T05:38:06.830Z,9.50
2022-12-26T05:41:09.399Z,9.49
2022-12-26T05:44:11.979Z,9.47
2022-12-26T05:47:14.555Z,9.48
2022-12-26T05:50:18.634Z,9.47
2022-12-26T05:53:21.208Z,9.47
2022-12-26T05:56:23.870Z,9.48
2022-12-26T05:59:26.612Z,9.48
2022-12-26T06:02:30.568Z,9.49
2022-12-26T06:05:34.663Z,9.50
2022-12-26T06:08:37.278Z,9.51
2022-12-26T06:11:45.280Z,9.52
2022-12-26T06:14:51.238Z,9.50
2022-12-26T06:17:55.329Z,9.49
2022-12-26T06:20:59.200Z,9.50
2022-12-26T06:24:02.213Z,9.53
2022-12-26T06:27:04.757Z,9.53
2022-12-26T06:30:08.002Z,9.52
2022-12-26T06:33:10.577Z,9.51
2022-12-26T06:36:15.290Z,9.54
2022-12-26T06:39:17.838Z,9.56
2022-12-26T06:42:20.411Z,9.59
2022-12-26T06:45:23.027Z,9.60
2022-12-26T06:48:25.642Z,9.60
2022-12-26T06:51:29.617Z,9.64
2022-12-26T06:54:32.193Z,9.65
2022-12-26T06:57:34.729Z,9.66
2022-12-26T07:00:37.364Z,9.68
2022-12-26T07:03:44.771Z,9.69
2022-12-26T07:06:52.619Z,9.65
2022-12-26T07:09:55.198Z,9.63
2022-12-26T07:12:57.790Z,9.60
2022-12-26T07:16:00.678Z,9.60
2022-12-26T07:19:03.337Z,9.61
2022-12-26T07:22:07.199Z,9.65
2022-12-26T07:25:10.359Z,9.69
2022-12-26T07:28:12.933Z,9.66
2022-12-26T07:31:17.327Z,9.68
2022-12-26T07:34:19.914Z,9.68
2022-12-26T07:37:23.795Z,9.68
2022-12-26T07:40:26.391Z,9.69
2022-12-26T07:43:28.983Z,9.68
2022-12-26T07:46:31.629Z,9.74
2022-12-26T07:49:34.230Z,9.73
2022-12-26T07:52:38.168Z,9.77
2022-12-26T07:55:40.778Z,9.80
2022-12-26T07:58:43.327Z,9.84
2022-12-26T08:01:45.953Z,9.88
2022-12-26T08:04:48.669Z,9.89
2022-12-26T08:07:52.600Z,9.93
2022-12-26T08:10:59.778Z,9.90
2022-12-26T08:14:02.464Z,9.90
2022-12-26T08:17:05.103Z,9.92
2022-12-26T08:20:08.467Z,9.92
2022-12-26T08:23:12.347Z,9.90
2022-12-26T08:26:20.681Z,9.88
2022-12-26T08:29:23.284Z,9.85
2022-12-26T08:32:25.963Z,9.79
2022-12-26T08:35:30.099Z,9.74
2022-12-26T08:38:34.269Z,9.73
2022-12-26T08:41:36.958Z,9.71
2022-12-26T08:44:39.551Z,9.73
2022-12-26T08:47:42.095Z,9.72
2022-12-26T08:50:44.635Z,9.73
2022-12-26T08:53:49.493Z,9.75
2022-12-26T08:56:52.230Z,9.75
2022-12-26T08:59:54.856Z,9.70
2022-12-26T09:02:57.500Z,9.67
2022-12-26T09:06:05.592Z,9.61
2022-12-26T09:09:11.678Z,9.54
2022-12-26T09:12:14.318Z,9.48
2022-12-26T09:15:17.041Z,9.43
2022-12-26T09:18:19.887Z,9.38
2022-12-26T09:21:22.437Z,9.33
2022-12-26T09:24:26.352Z,9.28
2022-12-26T09:27:29.635Z,9.26
2022-12-26T09:30:32.246Z,9.20
2022-12-26T09:33:37.551Z,9.14
2022-12-26T09:36:40.279Z,9.07
2022-12-26T09:39:44.197Z,9.02
2022-12-26T09:42:50.822Z,9.01
2022-12-26T09:46:00.404Z,9.00
2022-12-26T09:49:05.439Z,8.98
2022-12-26T09:52:12.652Z,8.92
2022-12-26T09:55:31.419Z,8.95
2022-12-26T09:58:34.992Z,8.89
2022-12-26T10:01:37.691Z,8.87
2022-12-26T10:04:40.506Z,8.88
2022-12-26T10:07:45.122Z,8.85
2022-12-26T10:10:51.447Z,8.85
2022-12-26T10:13:56.692Z,8.85
2022-12-26T10:17:01.773Z,8.82
2022-12-26T10:20:14.000Z,8.82
2022-12-26T10:23:24.120Z,8.83
2022-12-26T10:26:30.810Z,9.00
2022-12-26T10:29:35.888Z,9.49
2022-12-26T10:32:40.099Z,10.07
2022-12-26T10:35:43.955Z,10.70
2022-12-26T10:38:47.118Z,11.10
2022-12-26T10:41:53.103Z,11.16
2022-12-26T10:44:55.686Z,11.14
2022-12-26T10:47:58.992Z,11.05
2022-12-26T10:51:01.533Z,10.89
2022-12-26T10:54:04.059Z,10.71
2022-12-26T10:57:08.359Z,10.61
2022-12-26T11:00:15.739Z,10.57
2022-12-26T11:03:19.118Z,10.54
2022-12-26T11:06:21.787Z,10.39
2022-12-26T11:09:27.328Z,10.25
2022-12-26T11:12:38.022Z,10.10
2022-12-26T11:15:41.336Z,9.95
2022-12-26T11:18:48.073Z,9.88
2022-12-26T11:21:50.600Z,9.80
2022-12-26T11:25:14.306Z,9.84
2022-12-26T11:28:25.421Z,10.04
2022-12-26T11:31:30.912Z,10.37
2022-12-26T11:34:35.217Z,10.70
2022-12-26T11:37:43.899Z,10.99
2022-12-26T11:41:08.639Z,11.26
2022-12-26T11:44:19.531Z,11.38
2022-12-26T11:47:23.018Z,11.47
2022-12-26T11:50:27.233Z,11.56
2022-12-26T11:53:31.503Z,11.65
2022-12-26T11:56:34.074Z,11.62
2022-12-26T11:59:37.999Z,11.50
2022-12-26T12:02:40.578Z,11.28
2022-12-26T12:05:46.817Z,11.10
2022-12-26T12:08:53.124Z,11.09
2022-12-26T12:11:57.786Z,11.20
2022-12-26T12:15:05.069Z,11.23
2022-12-26T12:18:10.942Z,11.24
2022-12-26T12:21:16.112Z,11.08
2022-12-26T12:24:27.282Z,10.91
2022-12-26T12:27:31.420Z,10.71
2022-12-26T12:30:39.668Z,10.49
2022-12-26T12:33:46.670Z,10.46
2022-12-26T12:36:55.014Z,10.55
2022-12-26T12:40:01.950Z,10.72
2022-12-26T12:43:09.060Z,10.91
2022-12-26T12:46:18.181Z,11.01
2022-12-26T12:49:33.409Z,11.11
2022-12-26T12:52:42.373Z,11.24
2022-12-26T12:55:53.148Z,11.25
2022-12-26T12:58:58.187Z,11.18
2022-12-26T13:02:11.047Z,11.16
2022-12-26T13:05:26.950Z,11.19
2022-12-26T13:08:31.661Z,11.12
2022-12-26T13:11:35.868Z,11.00
2022-12-26T13:14:39.600Z,10.85
2022-12-26T13:17:46.508Z,10.88
2022-12-26T13:20:49.901Z,10.95
2022-12-26T13:24:12.336Z,10.92
2022-12-26T13:27:16.478Z,10.86
2022-12-26T13:30:19.105Z,10.78
2022-12-26T13:33:23.151Z,10.58
2022-12-26T13:36:39.397Z,10.44
2022-12-26T13:39:42.002Z,10.30
2022-12-26T13:43:03.405Z,10.23
2022-12-26T13:46:05.993Z,10.15
2022-12-26T13:49:28.591Z,10.22
2022-12-26T13:52:34.842Z,10.36
2022-12-26T13:55:44.432Z,10.42
2022-12-26T13:58:51.020Z,10.39
2022-12-26T14:01:56.351Z,10.29
2022-12-26T14:05:02.556Z,10.17
2022-12-26T14:08:07.747Z,10.00
2022-12-26T14:11:34.386Z,9.93
2022-12-26T14:14:49.478Z,9.85
2022-12-26T14:18:01.892Z,9.78
2022-12-26T14:21:21.051Z,9.80
2022-12-26T14:24:28.565Z,9.89
2022-12-26T14:27:34.808Z,9.90
2022-12-26T14:30:42.099Z,9.86
2022-12-26T14:33:48.313Z,9.83
2022-12-26T14:36:54.254Z,9.88
2022-12-26T14:40:28.509Z,9.85
2022-12-26T14:43:37.696Z,9.84
2022-12-26T14:47:01.674Z,9.86
2022-12-26T14:50:45.869Z,9.84
2022-12-26T14:54:05.828Z,9.78
2022-12-26T14:57:36.939Z,9.66
2022-12-26T15:00:40.608Z,9.58
2022-12-26T15:03:45.655Z,9.52
2022-12-26T15:07:14.090Z,9.47
2022-12-26T15:10:51.704Z,9.42
2022-12-26T15:14:11.745Z,9.32
2022-12-26T15:17:17.985Z,9.26
2022-12-26T15:20:47.667Z,9.23
2022-12-26T15:24:19.285Z,9.14
2022-12-26T15:27:40.369Z,9.04
2022-12-26T15:31:05.918Z,8.90
2022-12-26T15:34:31.392Z,8.84
2022-12-26T15:37:57.397Z,8.77
2022-12-26T15:41:11.700Z,8.72
2022-12-26T15:44:24.770Z,8.67
2022-12-26T15:47:29.807Z,8.61
2022-12-26T15:50:33.912Z,8.57
2022-12-26T15:53:51.813Z,8.53
2022-12-26T15:57:01.205Z,8.46
2022-12-26T16:00:12.995Z,8.37
2022-12-26T16:03:24.944Z,8.31
2022-12-26T16:06:33.583Z,8.31
2022-12-26T16:09:43.409Z,8.29
2022-12-26T16:12:58.518Z,8.28
2022-12-26T16:16:02.964Z,8.25
2022-12-26T16:19:18.582Z,8.23
2022-12-26T16:22:43.710Z,8.22
2022-12-26T16:25:47.712Z,8.13
2022-12-26T16:28:50.253Z,8.14
2022-12-26T16:31:55.573Z,8.12
2022-12-26T16:34:58.685Z,8.08
2022-12-26T16:38:02.230Z,8.04
2022-12-26T16:41:06.837Z,8.00
2022-12-26T16:44:30.057Z,7.97
2022-12-26T16:47:34.578Z,7.94
2022-12-26T16:50:45.240Z,7.92
2022-12-26T16:53:47.833Z,7.90
2022-12-26T16:56:51.205Z,7.91
2022-12-26T16:59:55.015Z,7.91
2022-12-26T17:02:59.350Z,7.92
2022-12-26T17:06:05.541Z,7.95
2022-12-26T17:09:08.805Z,7.98
2022-12-26T17:12:20.981Z,7.96
2022-12-26T17:15:25.040Z,7.99
2022-12-26T17:18:39.378Z,7.95
2022-12-26T17:21:41.926Z,7.93
2022-12-26T17:24:44.740Z,7.91
2022-12-26T17:27:47.971Z,7.88
2022-12-26T17:30:53.169Z,7.89
2022-12-26T17:33:57.730Z,7.89
2022-12-26T17:37:19.863Z,7.90
2022-12-26T17:40:24.995Z,7.90
2022-12-26T17:43:31.232Z,7.90
2022-12-26T17:46:33.849Z,7.88
2022-12-26T17:49:37.811Z,7.88
2022-12-26T17:52:40.447Z,7.89
2022-12-26T17:55:43.000Z,7.86
2022-12-26T17:58:45.599Z,7.90
2022-12-26T18:01:48.312Z,7.91
2022-12-26T18:04:52.347Z,7.94
2022-12-26T18:07:54.885Z,7.94
2022-12-26T18:10:57.621Z,7.96
2022-12-26T18:14:00.225Z,7.94
2022-12-26T18:17:02.807Z,7.95
2022-12-26T18:20:07.768Z,7.98
2022-12-26T18:23:11.025Z,8.00
2022-12-26T18:26:17.495Z,8.02
2022-12-26T18:29:21.599Z,8.04
2022-12-26T18:32:25.302Z,8.05
2022-12-26T18:35:29.187Z,8.04
2022-12-26T18:38:31.740Z,7.93
2022-12-26T18:41:34.324Z,8.03
2022-12-26T18:44:36.855Z,8.03
2022-12-26T18:47:39.475Z,8.02
2022-12-26T18:50:43.778Z,8.04
2022-12-26T18:53:46.704Z,8.08
2022-12-26T18:56:49.280Z,8.07
2022-12-26T18:59:51.976Z,8.07
2022-12-26T19:02:55.497Z,8.07
2022-12-26T19:05:59.445Z,8.09
2022-12-26T19:09:01.995Z,8.09
2022-12-26T19:12:04.842Z,8.08
2022-12-26T19:15:08.380Z,8.08
2022-12-26T19:18:10.991Z,8.07
2022-12-26T19:21:15.291Z,8.08
2022-12-26T19:24:17.840Z,8.10
2022-12-26T19:27:20.467Z,8.09
2022-12-26T19:30:23.261Z,8.12
2022-12-26T19:33:25.812Z,8.12
2022-12-26T19:36:29.751Z,8.09
2022-12-26T19:39:32.368Z,8.09
2022-12-26T19:42:37.176Z,8.09
2022-12-26T19:45:39.769Z,8.09
2022-12-26T19:48:42.382Z,8.09
2022-12-26T19:51:47.080Z,8.12
2022-12-26T19:54:49.659Z,8.15
2022-12-26T19:57:54.749Z,8.16
2022-12-26T20:00:57.428Z,8.18
2022-12-26T20:04:01.686Z,8.18
2022-12-26T20:07:05.607Z,8.19
2022-12-26T20:10:08.393Z,8.19
2022-12-26T20:13:10.961Z,8.14
2022-12-26T20:16:37.409Z,8.17
2022-12-26T20:19:37.123Z,8.20
2022-12-26T20:22:41.101Z,8.22
2022-12-26T20:25:43.645Z,8.23
2022-12-26T20:28:46.300Z,8.22
2022-12-26T20:31:49.349Z,8.23
2022-12-26T20:34:51.944Z,8.24
2022-12-26T20:37:55.917Z,8.24
2022-12-26T20:40:58.483Z,8.24
2022-12-26T20:44:01.018Z,8.24
2022-12-26T20:47:04.261Z,8.17
2022-12-26T20:50:08.023Z,8.22
2022-12-26T20:53:11.963Z,8.20
2022-12-26T20:56:14.549Z,8.20
2022-12-26T20:59:17.256Z,8.21
2022-12-26T21:02:20.025Z,8.18
2022-12-26T21:05:22.667Z,8.17
2022-12-26T21:08:26.640Z,8.17
2022-12-26T21:11:30.470Z,8.16
2022-12-26T21:14:32.991Z,8.17
2022-12-26T21:17:36.836Z,8.16
2022-12-26T21:20:39.436Z,8.18
2022-12-26T21:23:43.410Z,8.18
2022-12-26T21:26:46.163Z,8.17
2022-12-26T21:29:48.888Z,8.16
2022-12-26T21:32:51.821Z,8.15
2022-12-26T21:35:54.827Z,8.10
2022-12-26T21:38:58.764Z,8.10
2022-12-26T21:42:01.506Z,8.10
2022-12-26T21:45:04.242Z,8.10
2022-12-26T21:48:07.411Z,8.14
2022-12-26T21:51:10.324Z,8.15
2022-12-26T21:54:31.695Z,8.15
2022-12-26T21:57:35.024Z,8.13
2022-12-26T22:00:37.635Z,8.15
2022-12-26T22:03:57.692Z,8.15
2022-12-26T22:07:00.235Z,8.13
2022-12-26T22:10:04.480Z,8.12
2022-12-26T22:13:06.248Z,8.10
2022-12-26T22:16:10.515Z,8.07
2022-12-26T22:19:13.169Z,8.05
2022-12-26T22:22:15.770Z,8.05
2022-12-26T22:25:19.951Z,8.04
2022-12-26T22:28:23.567Z,8.00
2022-12-26T22:31:28.130Z,8.00
2022-12-26T22:34:30.749Z,8.01
2022-12-26T22:37:33.311Z,8.01
2022-12-26T22:40:37.231Z,8.01
2022-12-26T22:43:40.607Z,8.01
2022-12-26T22:46:43.300Z,7.99
2022-12-26T22:49:45.927Z,7.98
2022-12-26T22:52:48.531Z,7.97
2022-12-26T22:55:57.916Z,7.96
2022-12-26T22:59:00.940Z,7.96
2022-12-26T23:02:03.621Z,7.96
2022-12-26T23:05:07.359Z,7.96
2022-12-26T23:08:11.935Z,7.96
2022-12-26T23:11:16.319Z,7.95
2022-12-26T23:14:20.271Z,7.94
2022-12-26T23:17:36.756Z,7.89
2022-12-26T23:20:56.776Z,7.92
2022-12-26T23:23:59.319Z,7.91
2022-12-26T23:27:19.229Z,7.90
2022-12-26T23:30:23.088Z,7.89
2022-12-26T23:33:25.844Z,7.88
2022-12-26T23:36:28.438Z,7.89
2022-12-26T23:39:31.082Z,7.87
2022-12-26T23:42:35.033Z,7.85
2022-12-26T23:45:37.620Z,7.84
2022-12-26T23:48:40.166Z,7.84
2022-12-26T23:51:42.827Z,7.83
2022-12-26T23:54:45.392Z,7.83
2022-12-26T23:57:49.321Z,7.85
